Accueil
METAR-TAF:

METAR-TAF

Aéroports :

Aéroport de Badajoz

Badajoz, Espagne

latitude: 38-53N, longitude: 006-49W, altitude: 185 m

Observation

Le bulletin a été fait il y a 41 minutes, à 16:30 UTC
Vent 9 kt de ouest
Température 10°C
Humidité 66%
Pression 1011 hPa
Visibilité 10 km ou plus
pas de nuages en-dessous de 1500 mètres et pas de cumulonimbus.

METAR: LEBZ 051630Z AUTO 27009KT CAVOK 10/04 Q1011

Heure: 18:11 (17:11 UTC)

Prévision

Le bulletin a été fait il y a 6 heures et 11 minutes, à 11:00 UTC
Prévision valable du 05 à 12 UTC au 06 à 12 UTC
Vent 9 kt de ouest
Visibilité 10 km ou plus
pas de nuages en-dessous de 1500 mètres et pas de cumulonimbus.

TAF: LEBZ 051100Z 0512/0612 27009KT CAVOK TX11/0514Z TN04/0606Z

Observations et prévisions météorologiques de plus de 4000 aéroports (messages METAR et TAF).

Les stations disponibles sont représentées par des disques jaunes et rouges sur la carte.

Passer la souris dessus pour voir le nom de la station.

Cliquer dessus pour voir les observations et prévisions météorologiques.

Pour changer de carte: cliquez sur les boutons verts avec une croix noire pour zoomer, sur le bouton vert avec un tiret pour effectuer un zoom arrière, ou sur les flèches vertes pour les cartes adjacentes.


METAR-TAF: